Time;durP1;ratioP1;P1;durP2;ratioP2;P2;SDS_P1;SDS_P2;PMS_P1;PMS_P2;Temp;Humidity;BMP_temperature;BMP_pressure;BME280_temperature;BME280_humidity;BME280_pressure;Samples;Min_cycle;Max_cycle;Signal;HPM_P1;HPM_P2
2021/11/03 00:02:08;;;;;;;2.95;1.60;;;6.50;99.90;;;;;;5032737;28;20173;-64
2021/11/03 00:04:36;;;;;;;1.92;1.75;;;6.60;99.90;;;;;;5032966;28;20171;-64
2021/11/03 00:07:02;;;;;;;1.90;1.70;;;6.60;99.90;;;;;;5032662;28;20182;-64
2021/11/03 00:09:28;;;;;;;1.90;1.80;;;6.70;99.90;;;;;;5032749;28;20195;-66
2021/11/03 00:11:54;;;;;;;1.30;1.20;;;6.70;99.90;;;;;;5032881;28;20630;-65
2021/11/03 00:14:20;;;;;;;1.73;1.63;;;6.70;99.90;;;;;;5032907;28;20447;-65
2021/11/03 00:16:45;;;;;;;4.43;1.60;;;6.80;99.90;;;;;;5032650;28;20286;-65
2021/11/03 00:19:11;;;;;;;1.40;1.40;;;6.80;99.90;;;;;;5033006;28;20545;-64
2021/11/03 00:21:36;;;;;;;2.10;1.40;;;6.80;99.90;;;;;;5032686;28;20169;-64
2021/11/03 00:24:02;;;;;;;1.63;1.50;;;6.90;99.90;;;;;;5032870;28;20194;-64
2021/11/03 00:26:28;;;;;;;1.30;1.30;;;6.90;99.90;;;;;;5032406;28;20274;-64
2021/11/03 00:28:54;;;;;;;1.30;1.20;;;6.90;99.90;;;;;;5032698;28;20209;-65
2021/11/03 00:31:19;;;;;;;1.73;1.63;;;6.90;99.90;;;;;;5032491;28;20658;-65
2021/11/03 00:33:45;;;;;;;4.40;2.33;;;7.00;99.90;;;;;;5032429;28;20174;-65
2021/11/03 00:36:11;;;;;;;2.10;2.00;;;6.90;99.90;;;;;;5033981;28;20195;-65
2021/11/03 00:38:37;;;;;;;1.43;1.33;;;6.90;99.90;;;;;;5035749;28;20608;-65
2021/11/03 00:41:04;;;;;;;1.58;1.23;;;6.90;99.90;;;;;;5036037;28;20673;-64
2021/11/03 00:43:29;;;;;;;2.35;2.25;;;6.90;99.90;;;;;;5036009;28;20190;-65
2021/11/03 00:45:55;;;;;;;1.30;1.20;;;6.90;99.90;;;;;;5036137;28;20184;-65
2021/11/03 00:48:20;;;;;;;2.10;2.00;;;6.90;99.90;;;;;;5035543;28;20198;-64
2021/11/03 00:50:47;;;;;;;1.50;1.37;;;6.90;99.90;;;;;;5035964;28;20525;-65
2021/11/03 00:53:14;;;;;;;1.80;1.60;;;6.90;99.90;;;;;;5035864;28;20187;-64
2021/11/03 00:55:41;;;;;;;1.30;1.17;;;7.00;99.90;;;;;;5036015;28;20200;-64
2021/11/03 00:58:07;;;;;;;1.30;1.20;;;7.00;99.90;;;;;;5035310;28;20730;-64
2021/11/03 01:00:34;;;;;;;1.83;1.67;;;7.00;99.90;;;;;;5035795;28;20254;-64
2021/11/03 01:03:00;;;;;;;2.53;2.33;;;7.00;99.90;;;;;;5035578;28;20645;-65
2021/11/03 01:05:27;;;;;;;1.35;1.20;;;7.10;99.90;;;;;;5035656;28;20166;-64
2021/11/03 01:07:52;;;;;;;1.50;1.40;;;7.10;99.90;;;;;;5035312;28;20247;-64
2021/11/03 01:10:20;;;;;;;3.30;1.37;;;7.10;99.90;;;;;;5035744;28;20172;-64
2021/11/03 01:12:46;;;;;;;1.20;1.20;;;7.10;99.90;;;;;;5035624;28;20175;-64
2021/11/03 01:15:15;;;;;;;1.38;1.27;;;7.10;99.90;;;;;;5035452;28;20271;-63
2021/11/03 01:17:42;;;;;;;1.13;1.05;;;7.10;99.90;;;;;;5034904;28;20221;-64
2021/11/03 01:20:10;;;;;;;1.35;1.17;;;7.10;99.90;;;;;;5035592;28;20185;-64
2021/11/03 01:22:37;;;;;;;2.95;1.27;;;7.00;99.90;;;;;;5035490;28;20228;-63
2021/11/03 01:25:04;;;;;;;1.40;1.30;;;7.00;99.90;;;;;;5035214;28;20260;-65
2021/11/03 01:27:30;;;;;;;1.42;1.35;;;7.00;99.90;;;;;;5033592;28;20305;-65
2021/11/03 01:29:56;;;;;;;1.20;1.20;;;6.90;99.90;;;;;;5035458;28;20168;-65
2021/11/03 01:32:21;;;;;;;1.53;1.27;;;6.90;99.90;;;;;;5035103;28;20179;-63
2021/11/03 01:34:47;;;;;;;1.80;1.70;;;6.90;99.90;;;;;;5035285;28;20260;-63
2021/11/03 01:37:13;;;;;;;1.40;1.07;;;6.80;99.90;;;;;;5034720;28;20256;-64
2021/11/03 01:39:39;;;;;;;0.90;0.90;;;6.80;99.90;;;;;;5035051;28;20253;-64
2021/11/03 01:42:05;;;;;;;2.83;1.60;;;6.80;99.90;;;;;;5035024;28;20244;-64
2021/11/03 01:44:30;;;;;;;1.40;1.40;;;6.80;99.90;;;;;;5034998;28;20652;-64
2021/11/03 01:47:16;;;;;;;1.57;1.13;;;6.70;99.90;;;;;;5034605;28;20230;-64
2021/11/03 01:49:41;;;;;;;1.63;0.98;;;6.70;99.90;;;;;;5034701;28;20194;-64
2021/11/03 01:52:14;;;;;;;1.50;1.40;;;6.70;99.90;;;;;;5034944;28;20542;-65
2021/11/03 01:54:45;;;;;;;1.40;1.30;;;6.60;99.90;;;;;;5034735;28;20539;-65
2021/11/03 01:57:15;;;;;;;1.20;1.20;;;6.50;99.90;;;;;;5034416;28;20205;-64
2021/11/03 01:59:44;;;;;;;1.63;1.52;;;6.40;99.90;;;;;;5034787;28;20168;-65
2021/11/03 02:02:13;;;;;;;1.30;1.30;;;6.40;99.90;;;;;;5034683;28;20170;-66
2021/11/03 02:04:39;;;;;;;1.17;0.95;;;6.40;99.90;;;;;;5034612;28;20174;-66
2021/11/03 02:07:10;;;;;;;0.87;0.87;;;6.40;99.90;;;;;;5034040;28;20174;-65
2021/11/03 02:09:35;;;;;;;1.50;1.40;;;6.40;99.90;;;;;;5034406;28;20424;-65
2021/11/03 02:12:01;;;;;;;2.43;0.80;;;6.40;99.90;;;;;;5034535;28;20172;-63
2021/11/03 02:14:27;;;;;;;1.50;1.40;;;6.40;99.90;;;;;;5034467;28;20166;-66
2021/11/03 02:16:53;;;;;;;0.90;0.90;;;6.40;99.90;;;;;;5033897;28;20598;-65
2021/11/03 02:19:28;;;;;;;1.08;1.08;;;6.40;99.90;;;;;;5034269;28;20189;-64
2021/11/03 02:22:06;;;;;;;0.80;0.80;;;6.40;99.90;;;;;;5034083;28;20215;-64
2021/11/03 02:24:43;;;;;;;1.95;1.73;;;6.40;99.90;;;;;;5034253;28;20171;-64
2021/11/03 02:27:10;;;;;;;1.77;1.20;;;6.40;99.90;;;;;;5033902;28;20575;-64
2021/11/03 02:29:36;;;;;;;2.20;1.13;;;6.30;99.90;;;;;;5034241;28;20237;-65
2021/11/03 02:32:19;;;;;;;1.90;1.70;;;6.30;99.90;;;;;;5034100;28;20176;-66
2021/11/03 02:34:46;;;;;;;1.35;1.35;;;6.30;99.90;;;;;;5034065;28;20410;-65
2021/11/03 02:37:27;;;;;;;1.05;1.02;;;6.30;99.90;;;;;;5033941;28;20197;-63
2021/11/03 02:40:34;;;;;;;1.20;1.20;;;6.30;99.90;;;;;;5033994;28;20170;-64
2021/11/03 02:43:08;;;;;;;1.00;1.00;;;6.30;99.90;;;;;;5034158;28;20191;-66
2021/11/03 02:45:46;;;;;;;2.00;1.40;;;6.30;99.90;;;;;;5033786;28;20509;-66
2021/11/03 02:48:12;;;;;;;1.50;1.50;;;6.30;99.90;;;;;;5033615;28;20277;-66
2021/11/03 02:50:55;;;;;;;1.60;1.50;;;6.30;99.90;;;;;;5033647;28;20179;-65
2021/11/03 02:53:22;;;;;;;1.17;1.10;;;6.30;99.90;;;;;;5033567;28;20162;-65
2021/11/03 02:55:47;;;;;;;1.95;1.80;;;6.30;99.90;;;;;;5033499;28;20556;-65
2021/11/03 02:58:13;;;;;;;1.40;1.30;;;6.30;99.90;;;;;;5032910;28;20190;-65
2021/11/03 03:00:39;;;;;;;1.60;1.50;;;6.30;99.90;;;;;;5033810;28;20168;-65
2021/11/03 03:03:05;;;;;;;1.53;1.43;;;6.40;99.90;;;;;;5032459;28;20380;-64
2021/11/03 03:05:31;;;;;;;0.87;0.87;;;6.40;99.90;;;;;;5033697;28;20250;-65
2021/11/03 03:07:56;;;;;;;3.00;1.47;;;6.40;99.90;;;;;;5033048;28;20184;-65
2021/11/03 03:10:22;;;;;;;1.47;1.33;;;6.40;99.90;;;;;;5033463;28;20181;-65
2021/11/03 03:12:48;;;;;;;2.30;1.90;;;6.40;99.90;;;;;;5033500;28;20168;-65
2021/11/03 03:15:13;;;;;;;1.57;1.20;;;6.40;99.90;;;;;;5033130;28;20224;-65
2021/11/03 03:17:39;;;;;;;1.13;1.03;;;6.40;99.90;;;;;;5032910;28;20452;-65
2021/11/03 03:20:07;;;;;;;1.55;1.45;;;6.50;99.90;;;;;;5032665;28;20168;-64
2021/11/03 03:22:32;;;;;;;1.33;1.23;;;6.40;99.90;;;;;;5033424;28;20547;-65
2021/11/03 03:24:58;;;;;;;1.67;1.57;;;6.40;99.90;;;;;;5033198;28;20174;-65
2021/11/03 03:27:24;;;;;;;6.40;1.70;;;6.50;99.90;;;;;;5032772;28;20174;-65
2021/11/03 03:29:50;;;;;;;2.13;1.73;;;6.50;99.90;;;;;;5033266;28;20212;-66
2021/11/03 03:32:16;;;;;;;1.20;1.13;;;6.50;99.90;;;;;;5033283;28;20261;-64
2021/11/03 03:34:43;;;;;;;1.20;1.20;;;6.50;99.90;;;;;;5033187;28;20792;-65
2021/11/03 03:37:09;;;;;;;1.60;1.45;;;6.50;99.90;;;;;;5032667;28;20285;-64
2021/11/03 03:39:36;;;;;;;1.50;1.40;;;6.50;99.90;;;;;;5033177;28;20212;-64
2021/11/03 03:42:12;;;;;;;1.15;1.05;;;6.50;99.90;;;;;;5033247;28;20167;-64
2021/11/03 03:44:38;;;;;;;1.67;1.58;;;6.50;99.90;;;;;;5033207;28;20174;-65
2021/11/03 03:47:04;;;;;;;1.85;1.70;;;6.60;99.90;;;;;;5032738;28;20172;-63
2021/11/03 03:49:31;;;;;;;1.60;1.10;;;6.60;99.90;;;;;;5032917;28;20197;-65
2021/11/03 03:51:56;;;;;;;1.90;1.80;;;6.60;99.90;;;;;;5033054;28;20396;-64
2021/11/03 03:54:23;;;;;;;2.07;1.93;;;6.60;99.90;;;;;;5033082;28;20589;-65
2021/11/03 03:56:49;;;;;;;2.72;2.33;;;6.60;99.90;;;;;;5032746;28;20565;-65
2021/11/03 03:59:15;;;;;;;2.40;2.00;;;6.60;99.90;;;;;;5032946;28;20197;-64
2021/11/03 04:01:41;;;;;;;8.38;1.95;;;6.60;99.90;;;;;;5033005;28;20174;-65
2021/11/03 04:04:08;;;;;;;1.50;1.40;;;6.60;99.90;;;;;;5032821;28;20202;-65
2021/11/03 04:06:34;;;;;;;1.73;1.63;;;6.60;99.90;;;;;;5032545;28;20177;-64
2021/11/03 04:09:00;;;;;;;3.60;2.42;;;6.60;99.90;;;;;;5032962;28;20583;-64
2021/11/03 04:11:26;;;;;;;3.30;1.30;;;6.60;99.90;;;;;;5035025;28;20173;-65
2021/11/03 04:13:51;;;;;;;1.60;1.50;;;6.60;99.90;;;;;;5036737;28;20174;-65
2021/11/03 04:16:17;;;;;;;1.47;1.37;;;6.60;99.90;;;;;;5034837;28;20212;-64
2021/11/03 04:18:43;;;;;;;2.27;2.13;;;6.60;99.90;;;;;;5036823;28;20200;-64
2021/11/03 04:21:09;;;;;;;1.63;1.53;;;6.60;99.90;;;;;;5036489;28;20258;-64
2021/11/03 04:23:36;;;;;;;3.23;1.67;;;6.60;99.90;;;;;;5036547;28;20185;-63
2021/11/03 04:26:03;;;;;;;2.33;2.13;;;6.60;99.90;;;;;;5036284;28;20415;-64
2021/11/03 04:28:29;;;;;;;1.60;1.50;;;6.60;99.90;;;;;;5035832;28;20558;-65
2021/11/03 04:30:54;;;;;;;5.03;3.20;;;6.60;99.90;;;;;;5036500;28;20174;-65
2021/11/03 04:33:20;;;;;;;3.17;2.03;;;6.60;99.90;;;;;;5036250;28;20170;-64
2021/11/03 04:35:47;;;;;;;2.20;1.93;;;6.60;99.90;;;;;;5036140;28;20208;-65
2021/11/03 04:38:14;;;;;;;4.60;2.20;;;6.60;99.90;;;;;;5035730;28;20193;-65
2021/11/03 04:40:40;;;;;;;1.77;1.67;;;6.60;99.90;;;;;;5036224;28;20533;-64
2021/11/03 04:43:05;;;;;;;1.90;1.53;;;6.60;99.90;;;;;;5036189;28;20185;-64
2021/11/03 04:45:31;;;;;;;3.00;2.23;;;6.60;99.90;;;;;;5035905;28;20704;-64
2021/11/03 04:47:57;;;;;;;2.50;1.90;;;6.60;99.90;;;;;;5035671;28;20219;-63
2021/11/03 04:50:27;;;;;;;2.03;1.93;;;6.60;99.90;;;;;;5036123;28;20184;-65
2021/11/03 04:52:53;;;;;;;1.75;1.65;;;6.60;99.90;;;;;;5036091;28;20541;-64
2021/11/03 04:55:18;;;;;;;1.67;1.57;;;6.60;99.90;;;;;;5035947;28;20165;-65
2021/11/03 04:57:44;;;;;;;2.40;1.83;;;6.60;99.90;;;;;;5035302;28;20546;-65
2021/11/03 05:00:19;;;;;;;1.43;1.33;;;6.70;99.90;;;;;;5035683;28;20169;-64
2021/11/03 05:02:45;;;;;;;11.48;2.45;;;6.60;99.90;;;;;;5035629;28;20184;-64
2021/11/03 05:05:11;;;;;;;2.10;1.90;;;6.70;99.90;;;;;;5035834;28;20170;-64
2021/11/03 05:07:37;;;;;;;2.00;1.90;;;6.60;99.90;;;;;;5035150;28;20430;-64
2021/11/03 05:10:03;;;;;;;2.20;2.10;;;6.70;99.90;;;;;;5035712;28;20579;-64
2021/11/03 05:12:28;;;;;;;2.53;2.33;;;6.70;99.90;;;;;;5035560;28;20258;-64
2021/11/03 05:14:54;;;;;;;1.73;1.63;;;6.60;99.90;;;;;;5035450;28;20270;-65
2021/11/03 05:17:20;;;;;;;1.60;1.50;;;6.60;99.90;;;;;;5035155;28;20296;-64
2021/11/03 05:19:45;;;;;;;2.17;1.97;;;6.60;99.90;;;;;;5035249;28;20173;-64
2021/11/03 05:22:13;;;;;;;1.50;1.40;;;6.70;99.90;;;;;;5034936;28;20196;-63
2021/11/03 05:24:39;;;;;;;2.88;2.67;;;6.70;99.90;;;;;;5035053;28;20176;-66
2021/11/03 05:27:05;;;;;;;2.40;2.20;;;6.70;99.90;;;;;;5034544;28;20178;-62
2021/11/03 05:29:30;;;;;;;2.00;1.90;;;6.70;99.90;;;;;;5033571;28;20677;-64
2021/11/03 05:31:56;;;;;;;2.70;2.50;;;6.70;99.90;;;;;;5035013;28;20184;-64
2021/11/03 05:34:22;;;;;;;1.20;1.20;;;6.80;99.90;;;;;;5035197;28;20183;-64
2021/11/03 05:36:47;;;;;;;8.10;2.97;;;6.80;99.90;;;;;;5034793;28;20290;-65
2021/11/03 05:39:16;;;;;;;2.37;2.20;;;6.80;99.90;;;;;;5035165;28;20200;-63
2021/11/03 05:41:42;;;;;;;3.08;1.92;;;6.80;99.90;;;;;;5035131;28;20237;-63
2021/11/03 05:44:13;;;;;;;1.85;1.75;;;6.90;99.90;;;;;;5034994;28;20173;-64
2021/11/03 05:46:51;;;;;;;1.52;1.42;;;6.90;99.90;;;;;;5034680;28;20177;-63
2021/11/03 05:49:20;;;;;;;2.53;1.70;;;6.90;99.90;;;;;;5034838;28;20199;-63
2021/11/03 05:51:47;;;;;;;1.55;1.45;;;6.90;99.90;;;;;;5034992;28;20180;-64
2021/11/03 05:54:13;;;;;;;1.52;1.33;;;6.90;99.90;;;;;;5035146;28;20163;-63
2021/11/03 05:56:38;;;;;;;2.03;1.85;;;6.90;99.90;;;;;;5033188;28;20212;-63
2021/11/03 05:59:05;;;;;;;1.50;1.40;;;7.00;99.90;;;;;;5034815;28;20194;-64
2021/11/03 06:01:31;;;;;;;1.58;1.48;;;7.00;99.90;;;;;;5034740;28;20519;-64
2021/11/03 06:03:57;;;;;;;3.80;2.53;;;7.00;99.90;;;;;;5034845;28;20207;-64
2021/11/03 06:06:23;;;;;;;2.37;1.97;;;7.00;99.90;;;;;;5034359;28;20814;-64
2021/11/03 06:08:50;;;;;;;4.43;2.05;;;7.00;99.90;;;;;;5038690;28;20223;-65
2021/11/03 06:11:17;;;;;;;1.55;1.45;;;7.00;99.90;;;;;;5036814;28;20165;-65
2021/11/03 06:13:43;;;;;;;1.80;1.70;;;7.10;99.90;;;;;;5034439;28;20230;-65
2021/11/03 06:16:09;;;;;;;1.60;1.50;;;7.10;99.90;;;;;;5034127;28;20206;-64
2021/11/03 06:18:35;;;;;;;1.20;1.20;;;7.10;99.90;;;;;;5034001;28;20197;-64
2021/11/03 06:21:01;;;;;;;1.70;1.60;;;7.10;99.90;;;;;;5034066;28;20256;-65
2021/11/03 06:23:27;;;;;;;1.83;1.73;;;7.10;99.90;;;;;;5034124;28;20383;-64
2021/11/03 06:25:53;;;;;;;2.20;1.70;;;7.10;99.90;;;;;;5034156;28;20664;-62
2021/11/03 06:28:19;;;;;;;1.70;1.60;;;7.20;99.90;;;;;;5033671;28;20194;-64
2021/11/03 06:30:45;;;;;;;2.95;1.40;;;7.20;99.90;;;;;;5034212;28;20178;-64
2021/11/03 06:33:11;;;;;;;1.40;1.30;;;7.20;99.90;;;;;;5033706;28;20676;-65
2021/11/03 06:35:38;;;;;;;2.00;1.80;;;7.20;99.90;;;;;;5034301;28;20240;-64
2021/11/03 06:38:06;;;;;;;1.17;1.17;;;7.20;99.90;;;;;;5033868;28;20531;-65
2021/11/03 06:40:33;;;;;;;1.15;1.13;;;7.30;99.90;;;;;;5034236;28;20220;-64
2021/11/03 06:42:59;;;;;;;1.50;1.48;;;7.30;99.90;;;;;;5034259;28;20163;-64
2021/11/03 06:45:25;;;;;;;2.07;1.97;;;7.30;99.90;;;;;;5034181;28;20179;-65
2021/11/03 06:47:51;;;;;;;2.08;1.90;;;7.40;99.90;;;;;;5033810;28;20284;-64
2021/11/03 06:50:23;;;;;;;2.33;2.13;;;7.40;99.90;;;;;;5034122;28;20559;-65
2021/11/03 06:52:50;;;;;;;2.15;1.40;;;7.50;99.90;;;;;;5034377;28;20169;-65
2021/11/03 06:55:16;;;;;;;1.05;1.05;;;7.50;99.90;;;;;;5034417;28;20168;-64
2021/11/03 06:57:42;;;;;;;1.55;1.45;;;7.60;99.90;;;;;;5033659;28;20570;-64
2021/11/03 07:00:12;;;;;;;1.47;1.37;;;7.70;99.90;;;;;;5033898;28;20178;-65
2021/11/03 07:02:37;;;;;;;0.75;0.75;;;7.70;99.90;;;;;;5033585;28;20648;-64
2021/11/03 07:05:04;;;;;;;1.00;1.00;;;7.70;99.90;;;;;;5033798;28;20198;-63
2021/11/03 07:07:30;;;;;;;1.00;1.00;;;7.80;99.90;;;;;;5033004;28;20201;-65
2021/11/03 07:09:56;;;;;;;1.30;0.93;;;7.90;99.90;;;;;;5033418;28;20177;-65
2021/11/03 07:12:21;;;;;;;1.07;1.00;;;7.90;99.90;;;;;;5033216;28;20191;-63
2021/11/03 07:14:47;;;;;;;0.90;0.90;;;8.00;99.90;;;;;;5033187;28;20263;-65
2021/11/03 07:17:13;;;;;;;1.03;1.03;;;8.00;99.90;;;;;;5033017;28;20204;-64
2021/11/03 07:19:40;;;;;;;1.27;1.17;;;8.10;99.90;;;;;;5033235;28;20173;-64
2021/11/03 07:22:06;;;;;;;1.05;1.02;;;8.10;99.90;;;;;;5031870;28;20742;-64
2021/11/03 07:24:32;;;;;;;1.30;1.30;;;8.10;99.90;;;;;;5033179;28;20205;-63
2021/11/03 07:26:58;;;;;;;1.10;1.10;;;8.20;99.90;;;;;;5032849;28;20186;-65
2021/11/03 07:29:23;;;;;;;2.00;1.90;;;8.20;99.90;;;;;;5032986;28;20193;-64
2021/11/03 07:31:49;;;;;;;5.47;1.07;;;8.20;99.90;;;;;;5033039;28;20197;-64
2021/11/03 07:34:15;;;;;;;1.10;1.07;;;8.20;99.90;;;;;;5033033;28;20184;-65
2021/11/03 07:36:41;;;;;;;1.40;1.30;;;8.20;99.90;;;;;;5032629;28;20232;-63
2021/11/03 07:39:07;;;;;;;1.20;1.13;;;8.20;99.90;;;;;;5033009;28;20631;-63
2021/11/03 07:41:34;;;;;;;1.33;1.23;;;8.20;99.90;;;;;;5032960;28;20181;-64
2021/11/03 07:44:01;;;;;;;0.88;0.88;;;8.30;99.90;;;;;;5031749;28;20714;-64
2021/11/03 07:46:27;;;;;;;1.13;1.13;;;8.30;99.90;;;;;;5035463;28;20668;-64
2021/11/03 07:48:52;;;;;;;0.82;0.82;;;8.40;99.90;;;;;;5037068;28;20225;-64
2021/11/03 07:51:19;;;;;;;2.10;2.00;;;8.50;99.90;;;;;;5037016;28;20205;-65
2021/11/03 07:53:48;;;;;;;1.60;1.50;;;8.50;99.90;;;;;;5019323;28;20264;-65
2021/11/03 07:56:22;;;;;;;1.20;1.20;;;8.50;99.90;;;;;;5036778;28;20198;-65
2021/11/03 07:58:50;;;;;;;1.50;1.50;;;8.60;99.90;;;;;;5036731;28;20204;-64
2021/11/03 08:01:16;;;;;;;1.10;1.10;;;8.70;99.90;;;;;;5036955;28;20202;-65
2021/11/03 08:03:42;;;;;;;0.80;0.80;;;8.70;99.90;;;;;;5019217;28;20243;-65
2021/11/03 08:06:10;;;;;;;0.77;0.77;;;8.80;99.90;;;;;;5036807;28;20404;-64
2021/11/03 08:08:42;;;;;;;0.82;0.82;;;8.90;99.90;;;;;;5036641;28;20248;-65
2021/11/03 08:11:08;;;;;;;2.35;1.88;;;9.00;99.90;;;;;;5036708;28;20189;-64
2021/11/03 08:13:36;;;;;;;1.17;1.10;;;9.20;99.90;;;;;;5036633;28;20174;-64
2021/11/03 08:16:03;;;;;;;0.75;0.75;;;9.20;99.90;;;;;;5036271;28;20205;-65
2021/11/03 08:18:31;;;;;;;0.90;0.90;;;9.30;99.90;;;;;;5036392;28;20204;-66
2021/11/03 08:20:58;;;;;;;0.90;0.90;;;9.30;99.90;;;;;;5036575;28;20174;-65
2021/11/03 08:23:24;;;;;;;0.70;0.70;;;9.30;99.90;;;;;;5036532;28;20166;-65
2021/11/03 08:25:49;;;;;;;0.80;0.80;;;9.30;99.90;;;;;;5036474;28;20288;-65
2021/11/03 08:28:15;;;;;;;0.80;0.80;;;9.30;99.90;;;;;;5035814;28;20835;-65
2021/11/03 08:30:45;;;;;;;0.90;0.90;;;9.30;99.90;;;;;;5036505;28;20186;-64
2021/11/03 08:33:17;;;;;;;0.80;0.80;;;9.30;99.90;;;;;;5035002;28;20378;-65
2021/11/03 08:35:46;;;;;;;0.90;0.90;;;9.30;99.90;;;;;;5036255;28;20523;-65
2021/11/03 08:38:17;;;;;;;0.90;0.90;;;9.30;99.90;;;;;;5035587;28;20205;-65
2021/11/03 08:40:44;;;;;;;0.80;0.75;;;9.40;99.90;;;;;;5036141;28;20166;-65
2021/11/03 08:43:11;;;;;;;1.17;1.17;;;9.40;99.90;;;;;;5036191;28;20174;-64
2021/11/03 08:45:36;;;;;;;1.05;0.80;;;9.40;99.90;;;;;;5036099;28;20200;-66
2021/11/03 08:48:02;;;;;;;2.73;1.30;;;9.40;99.90;;;;;;5035698;28;20186;-65
2021/11/03 08:50:31;;;;;;;1.70;1.60;;;9.50;99.90;;;;;;5036009;28;20239;-64
2021/11/03 08:52:58;;;;;;;2.20;1.25;;;9.50;99.90;;;;;;5036013;28;20177;-65
2021/11/03 08:55:25;;;;;;;0.70;0.70;;;9.60;99.90;;;;;;5035929;28;20264;-64
2021/11/03 08:57:51;;;;;;;1.45;1.10;;;9.60;99.90;;;;;;5034696;28;20217;-64
2021/11/03 09:00:25;;;;;;;4.50;1.02;;;9.70;99.90;;;;;;5035623;28;20269;-65
2021/11/03 09:02:55;;;;;;;0.80;0.80;;;9.80;99.90;;;;;;5035681;28;20742;-65
2021/11/03 09:05:22;;;;;;;0.75;0.75;;;10.00;99.90;;;;;;5035573;28;20194;-65
2021/11/03 09:07:48;;;;;;;0.82;0.70;;;10.10;99.90;;;;;;5035127;28;20646;-65
2021/11/03 09:10:17;;;;;;;0.80;0.80;;;10.30;99.90;;;;;;5018107;28;20201;-65
2021/11/03 09:12:44;;;;;;;0.80;0.80;;;10.30;99.90;;;;;;5035160;28;20169;-65
2021/11/03 09:15:10;;;;;;;0.82;0.82;;;10.30;99.90;;;;;;5035356;28;20178;-65
2021/11/03 09:17:35;;;;;;;0.93;0.93;;;10.30;99.90;;;;;;5035018;28;20221;-65
2021/11/03 09:20:02;;;;;;;1.73;0.80;;;10.40;99.90;;;;;;5017713;28;20162;-65
2021/11/03 09:22:27;;;;;;;0.60;0.60;;;10.40;99.90;;;;;;5035289;28;20543;-65
2021/11/03 09:24:53;;;;;;;0.70;0.70;;;10.40;99.90;;;;;;5035333;28;20253;-65
2021/11/03 09:27:19;;;;;;;0.80;0.80;;;10.50;99.90;;;;;;5034787;28;20581;-65
2021/11/03 09:29:48;;;;;;;0.73;0.57;;;10.70;99.90;;;;;;5017299;28;20515;-65
2021/11/03 09:32:17;;;;;;;0.77;0.70;;;10.90;99.90;;;;;;5035250;28;20440;-65
2021/11/03 09:34:44;;;;;;;7.63;1.08;;;11.10;99.90;;;;;;5035177;28;20551;-65
2021/11/03 09:37:13;;;;;;;0.83;0.83;;;11.30;99.90;;;;;;5034575;28;20273;-65
2021/11/03 09:39:39;;;;;;;1.00;1.00;;;11.40;99.90;;;;;;5034967;28;20388;-64
2021/11/03 09:42:06;;;;;;;1.30;1.30;;;11.50;99.90;;;;;;5034942;28;20163;-65
2021/11/03 09:44:34;;;;;;;0.70;0.70;;;11.50;99.90;;;;;;5035177;28;20402;-65
2021/11/03 09:47:16;;;;;;;0.90;0.90;;;11.50;99.90;;;;;;5034595;28;20179;-65
2021/11/03 09:49:49;;;;;;;0.93;0.93;;;11.40;99.90;;;;;;5034711;28;20191;-65
2021/11/03 09:52:24;;;;;;;0.83;0.83;;;11.40;99.90;;;;;;5034474;28;20187;-66
2021/11/03 09:54:54;;;;;;;0.77;0.77;;;11.50;99.90;;;;;;5034910;28;20917;-65
2021/11/03 09:57:23;;;;;;;1.20;1.20;;;11.50;99.90;;;;;;5034206;28;20497;-65
2021/11/03 10:00:09;;;;;;;0.65;0.65;;;11.50;99.90;;;;;;5034862;28;20763;-65
2021/11/03 10:03:13;;;;;;;0.70;0.70;;;11.60;99.90;;;;;;5034744;28;20181;-65
2021/11/03 10:06:07;;;;;;;0.53;0.53;;;11.70;99.90;;;;;;5034503;28;20168;-65
2021/11/03 10:08:40;;;;;;;1.87;1.10;;;11.80;99.90;;;;;;5033081;28;20429;-65
2021/11/03 10:11:21;;;;;;;0.70;0.70;;;11.80;99.90;;;;;;5034089;28;20395;-66
2021/11/03 10:13:49;;;;;;;2.27;1.20;;;11.90;99.90;;;;;;5034431;28;20412;-66
2021/11/03 10:16:15;;;;;;;0.98;0.98;;;11.90;99.90;;;;;;5016232;28;20437;-67
2021/11/03 10:18:52;;;;;;;1.57;1.00;;;11.90;99.90;;;;;;5033938;28;20202;-66
2021/11/03 10:21:20;;;;;;;3.70;1.10;;;11.90;99.90;;;;;;5034327;28;20184;-66
2021/11/03 10:23:58;;;;;;;0.90;0.90;;;11.90;99.90;;;;;;5034296;28;20382;-66
2021/11/03 10:26:30;;;;;;;0.50;0.50;;;11.90;99.90;;;;;;5033895;28;20758;-65
2021/11/03 10:29:11;;;;;;;1.70;0.90;;;11.90;99.90;;;;;;5034156;28;20412;-65
2021/11/03 10:31:57;;;;;;;0.87;0.87;;;11.90;99.90;;;;;;5034096;28;20427;-65
2021/11/03 10:34:26;;;;;;;0.80;0.80;;;11.90;99.90;;;;;;5034081;28;20926;-65
2021/11/03 10:37:12;;;;;;;0.95;0.95;;;11.80;99.90;;;;;;5033668;28;20541;-66
2021/11/03 10:39:59;;;;;;;0.97;0.80;;;11.90;99.90;;;;;;5033945;28;20164;-67
2021/11/03 10:42:40;;;;;;;1.07;0.90;;;11.90;99.90;;;;;;5034112;28;20771;-66
2021/11/03 10:45:29;;;;;;;1.93;0.97;;;12.00;99.90;;;;;;5033897;28;20374;-65
2021/11/03 10:48:07;;;;;;;1.20;1.10;;;12.00;99.90;;;;;;5033275;28;20405;-65
2021/11/03 10:50:39;;;;;;;1.40;1.30;;;12.10;99.90;;;;;;5033616;28;20417;-65
2021/11/03 10:53:35;;;;;;;1.03;1.03;;;12.00;99.90;;;;;;5016849;28;20437;-65
2021/11/03 10:56:13;;;;;;;0.80;0.80;;;12.00;99.90;;;;;;5033640;28;20759;-65
2021/11/03 10:58:51;;;;;;;0.93;0.93;;;12.10;99.90;;;;;;5032058;28;20983;-65
2021/11/03 11:01:23;;;;;;;1.10;1.10;;;12.20;99.90;;;;;;5032276;28;20948;-66
2021/11/03 11:04:03;;;;;;;1.60;1.03;;;12.20;99.90;;;;;;5033530;28;20407;-66
2021/11/03 11:06:36;;;;;;;0.77;0.77;;;12.30;99.90;;;;;;5033135;28;20454;-66
2021/11/03 11:09:31;;;;;;;1.80;1.70;;;12.30;99.90;;;;;;5033821;28;20448;-65
2021/11/03 11:12:01;;;;;;;2.30;1.40;;;12.30;99.90;;;;;;5033292;28;20787;-66
2021/11/03 11:14:31;;;;;;;1.00;1.00;;;12.30;99.90;;;;;;5033511;28;20385;-65
2021/11/03 11:17:30;;;;;;;2.00;1.30;;;12.20;99.90;;;;;;5031480;28;20998;-66
2021/11/03 11:20:24;;;;;;;1.30;1.20;;;12.10;99.90;;;;;;5021291;28;20391;-66
2021/11/03 11:23:23;;;;;;;1.10;1.10;;;12.00;99.90;;;;;;5033434;28;20527;-65
2021/11/03 11:25:54;;;;;;;1.90;1.70;;;11.90;99.90;;;;;;5033414;28;20739;-65
2021/11/03 11:28:27;;;;;;;1.47;1.37;;;11.90;99.90;;;;;;5032951;28;20465;-65
2021/11/03 11:30:56;;;;;;;0.93;0.93;;;11.90;99.90;;;;;;5033259;28;20490;-65
2021/11/03 11:33:21;;;;;;;3.37;1.97;;;11.90;99.90;;;;;;5031780;28;20404;-65
2021/11/03 11:36:06;;;;;;;1.47;1.37;;;11.80;99.90;;;;;;5032860;28;20408;-64
2021/11/03 11:38:40;;;;;;;1.10;1.10;;;11.80;99.90;;;;;;5032906;28;20656;-65
2021/11/03 11:41:18;;;;;;;3.43;1.60;;;11.80;99.90;;;;;;5032888;28;20410;-65
2021/11/03 11:43:56;;;;;;;1.20;1.17;;;11.90;99.90;;;;;;5032982;28;20463;-65
2021/11/03 11:46:25;;;;;;;1.67;1.50;;;11.90;99.90;;;;;;5032761;28;20388;-65
2021/11/03 11:48:55;;;;;;;2.03;1.93;;;11.90;99.90;;;;;;5032867;28;20441;-65
2021/11/03 11:51:37;;;;;;;1.70;1.60;;;11.80;99.90;;;;;;5032998;28;20414;-64
2021/11/03 11:54:14;;;;;;;2.50;2.33;;;11.80;99.90;;;;;;5033084;28;20883;-65
2021/11/03 11:56:40;;;;;;;3.20;2.27;;;11.80;99.90;;;;;;5032746;28;20429;-65
2021/11/03 11:59:12;;;;;;;1.70;1.60;;;11.70;99.90;;;;;;5032720;28;20505;-65
2021/11/03 12:01:41;;;;;;;2.00;1.90;;;11.70;99.90;;;;;;5032937;28;20175;-66
2021/11/03 12:04:09;;;;;;;2.63;2.10;;;11.80;99.90;;;;;;5032969;28;20939;-65
2021/11/03 12:06:52;;;;;;;1.70;1.60;;;11.80;99.90;;;;;;5031450;28;20461;-66
2021/11/03 12:09:33;;;;;;;2.20;1.80;;;11.70;99.90;;;;;;5032481;28;20429;-67
2021/11/03 12:12:07;;;;;;;1.73;1.63;;;11.60;99.90;;;;;;5032901;28;20413;-66
2021/11/03 12:14:41;;;;;;;1.63;1.53;;;11.60;99.90;;;;;;5033212;28;20389;-66
2021/11/03 12:17:07;;;;;;;1.80;1.70;;;11.60;99.90;;;;;;5032421;28;20506;-66
2021/11/03 12:19:39;;;;;;;2.40;2.20;;;11.60;99.90;;;;;;5033152;28;20902;-65
2021/11/03 12:22:23;;;;;;;1.80;1.70;;;11.60;99.90;;;;;;5032695;28;20171;-66
2021/11/03 12:24:51;;;;;;;2.17;1.50;;;11.70;99.90;;;;;;5032806;28;20368;-66
2021/11/03 12:27:23;;;;;;;4.23;2.40;;;11.60;99.90;;;;;;5032166;28;20393;-66
2021/11/03 12:30:00;;;;;;;2.10;2.00;;;11.60;99.90;;;;;;5032740;28;20419;-65
2021/11/03 12:32:44;;;;;;;1.70;1.60;;;11.50;99.90;;;;;;5034702;28;20749;-66
2021/11/03 12:35:18;;;;;;;2.37;2.27;;;11.50;99.90;;;;;;5036335;28;20407;-65
2021/11/03 12:38:00;;;;;;;2.53;2.33;;;11.60;99.90;;;;;;5035819;28;20535;-65
2021/11/03 12:40:45;;;;;;;3.13;2.40;;;11.60;99.90;;;;;;5036086;28;20468;-65
2021/11/03 12:43:25;;;;;;;3.10;1.80;;;11.70;99.90;;;;;;5036373;28;20825;-66
2021/11/03 12:46:01;;;;;;;2.63;2.23;;;11.80;99.90;;;;;;5035917;28;20386;-64
2021/11/03 12:48:31;;;;;;;2.10;1.90;;;11.90;99.90;;;;;;5034231;28;20938;-65
2021/11/03 12:50:57;;;;;;;2.80;1.97;;;11.90;99.90;;;;;;5036160;28;20409;-65
2021/11/03 12:53:31;;;;;;;1.67;1.57;;;11.90;99.90;;;;;;5035760;28;20384;-65
2021/11/03 12:56:13;;;;;;;2.07;1.63;;;11.80;99.90;;;;;;5035909;28;20426;-65
2021/11/03 12:58:53;;;;;;;2.87;1.93;;;11.80;99.90;;;;;;5035518;28;20802;-66
2021/11/03 13:01:25;;;;;;;1.80;1.70;;;11.80;99.90;;;;;;5035919;28;20387;-66
2021/11/03 13:04:03;;;;;;;2.20;1.87;;;11.80;99.90;;;;;;5035728;28;20407;-66
2021/11/03 13:06:46;;;;;;;1.87;1.77;;;11.70;99.90;;;;;;5035682;28;20422;-66